Terminal Aerodrome Forecast
Issued by NWS Wilmington, OH

Current Version | Previous Version | Text Only | Print | Product List | Glossary Off
Versions: 1 2 3 4 5 6 7 8 9 10 11 12

000
FTUS41 KILN 151700 RRA
TAFILN
TAF
KILN 151742Z 1518/1618 33015G22KT P6SM VCSH OVC045
     FM152200 33012KT P6SM BKN045
     FM160100 35006KT P6SM SCT050
     FM160400 VRB04KT P6SM SKC
     FM161000 13005KT P6SM FEW250
     FM161400 15010KT P6SM SCT250=

USA.gov is the U.S. government's official web portal to all federal, state and local government web resources and services.